createdAt,value
2023-05-12T00:03:41.224Z,3.28
2023-05-12T00:07:43.244Z,3.83
2023-05-12T00:11:48.343Z,6.30
2023-05-12T00:15:51.497Z,3.80
2023-05-12T00:19:53.320Z,3.28
2023-05-12T00:23:55.278Z,3.00
2023-05-12T00:27:57.326Z,3.33
2023-05-12T00:31:59.777Z,3.00
2023-05-12T00:36:03.537Z,3.15
2023-05-12T00:40:06.084Z,3.47
2023-05-12T00:44:08.062Z,3.60
2023-05-12T00:48:10.332Z,3.23
2023-05-12T00:52:12.380Z,3.23
2023-05-12T00:56:16.811Z,3.72
2023-05-12T01:00:19.183Z,3.53
2023-05-12T01:04:23.202Z,3.90
2023-05-12T01:08:25.597Z,4.13
2023-05-12T01:12:28.074Z,4.23
2023-05-12T01:16:37.106Z,4.37
2023-05-12T01:20:42.070Z,4.50
2023-05-12T01:25:04.532Z,4.03
2023-05-12T01:29:07.755Z,3.65
2023-05-12T01:33:10.252Z,4.03
2023-05-12T01:37:12.781Z,2.80
2023-05-12T01:41:16.609Z,3.42
2023-05-12T01:45:19.007Z,3.22
2023-05-12T01:49:22.210Z,4.05
2023-05-12T01:53:24.802Z,3.58
2023-05-12T01:57:26.799Z,3.50
2023-05-12T02:01:32.537Z,3.30
2023-05-12T02:05:35.603Z,3.55
2023-05-12T02:09:39.091Z,3.80
2023-05-12T02:13:41.532Z,3.17
2023-05-12T02:17:43.461Z,3.28
2023-05-12T02:21:46.190Z,3.20
2023-05-12T02:25:48.189Z,2.88
2023-05-12T02:29:50.296Z,3.23
2023-05-12T02:33:53.164Z,3.10
2023-05-12T02:37:55.070Z,3.03
2023-05-12T02:41:57.170Z,3.10
2023-05-12T02:45:59.688Z,2.60
2023-05-12T02:50:02.443Z,3.03
2023-05-12T02:54:04.493Z,3.80
2023-05-12T02:58:07.070Z,2.30
2023-05-12T03:02:09.255Z,2.47
2023-05-12T03:06:11.268Z,2.60
2023-05-12T03:10:13.222Z,2.63
2023-05-12T03:14:15.251Z,2.80
2023-05-12T03:18:17.063Z,3.30
2023-05-12T03:22:19.024Z,3.00
2023-05-12T03:26:21.130Z,3.10
2023-05-12T03:30:23.697Z,3.70
2023-05-12T03:34:26.129Z,3.30
2023-05-12T03:38:29.533Z,4.17
2023-05-12T03:42:31.753Z,4.43
2023-05-12T03:46:34.166Z,4.97
2023-05-12T03:50:36.312Z,5.43
2023-05-12T03:54:38.213Z,4.93
2023-05-12T03:58:40.153Z,5.30
2023-05-12T04:02:42.250Z,5.53
2023-05-12T04:06:44.079Z,4.97
2023-05-12T04:10:45.924Z,5.33
2023-05-12T04:14:48.714Z,5.25
2023-05-12T04:18:50.723Z,4.40
2023-05-12T04:22:52.582Z,4.63
2023-05-12T04:26:54.834Z,4.10
2023-05-12T04:30:56.798Z,3.78
2023-05-12T04:34:59.705Z,4.10
2023-05-12T04:39:01.999Z,3.93
2023-05-12T04:43:04.870Z,3.95
2023-05-12T04:47:07.552Z,3.40
2023-05-12T04:51:09.875Z,4.70
2023-05-12T04:55:12.180Z,4.73
2023-05-12T04:59:15.763Z,4.60
2023-05-12T05:03:18.314Z,4.63
2023-05-12T05:07:20.574Z,5.10
2023-05-12T05:11:23.166Z,5.63
2023-05-12T05:15:25.477Z,5.40
2023-05-12T05:19:39.102Z,5.63
2023-05-12T05:23:49.304Z,5.57
2023-05-12T05:27:51.794Z,5.68
2023-05-12T05:31:54.024Z,5.60
2023-05-12T05:35:56.281Z,6.10
2023-05-12T05:39:58.439Z,5.85
2023-05-12T05:44:01.495Z,4.67
2023-05-12T05:48:04.361Z,6.05
2023-05-12T05:52:06.582Z,5.67
2023-05-12T05:56:08.550Z,5.63
2023-05-12T06:00:12.404Z,5.55
2023-05-12T06:04:21.560Z,6.27
2023-05-12T06:08:23.614Z,6.00
2023-05-12T06:12:25.504Z,5.90
2023-05-12T06:16:27.848Z,5.80
2023-05-12T06:20:29.810Z,5.18
2023-05-12T06:24:31.737Z,4.80
2023-05-12T06:28:34.226Z,5.32
2023-05-12T06:32:37.219Z,6.63
2023-05-12T06:36:40.632Z,5.25
2023-05-12T06:40:42.707Z,4.45
2023-05-12T06:44:45.648Z,4.93
2023-05-12T06:48:47.828Z,5.18
2023-05-12T06:52:50.512Z,5.45
2023-05-12T06:56:53.081Z,6.25
2023-05-12T07:00:54.909Z,6.07
2023-05-12T07:04:57.113Z,6.38
2023-05-12T07:08:59.118Z,5.63
2023-05-12T07:13:01.429Z,5.85
2023-05-12T07:17:03.978Z,6.18
2023-05-12T07:21:06.141Z,5.53
2023-05-12T07:25:08.414Z,5.18
2023-05-12T07:29:13.616Z,4.70
2023-05-12T07:33:15.892Z,4.53
2023-05-12T07:37:18.146Z,4.90
2023-05-12T07:41:20.169Z,6.00
2023-05-12T07:45:25.235Z,5.25
2023-05-12T07:49:27.018Z,5.63
2023-05-12T07:53:28.961Z,4.60
2023-05-12T07:57:30.779Z,3.92
2023-05-12T08:01:32.632Z,4.35
2023-05-12T08:05:34.799Z,3.58
2023-05-12T08:09:36.699Z,3.28
2023-05-12T08:13:38.585Z,3.58
2023-05-12T08:17:40.709Z,4.15
2023-05-12T08:21:42.821Z,3.60
2023-05-12T08:25:44.945Z,3.97
2023-05-12T08:29:47.119Z,4.50
2023-05-12T08:33:51.863Z,4.47
2023-05-12T08:37:57.431Z,4.25
2023-05-12T08:42:21.782Z,3.88
2023-05-12T08:46:24.002Z,4.35
2023-05-12T08:50:28.238Z,4.18
2023-05-12T08:54:30.433Z,4.28
2023-05-12T08:58:40.865Z,3.58
2023-05-12T09:02:51.972Z,3.38
2023-05-12T09:06:55.977Z,3.88
2023-05-12T09:10:59.014Z,3.05
2023-05-12T09:15:05.846Z,3.15
2023-05-12T09:19:08.659Z,4.10
2023-05-12T09:23:19.054Z,3.50
2023-05-12T09:27:28.158Z,3.83
2023-05-12T09:31:30.145Z,4.00
2023-05-12T09:35:32.079Z,3.80
2023-05-12T09:39:34.646Z,3.10
2023-05-12T09:43:37.484Z,2.22
2023-05-12T09:47:40.750Z,3.22
2023-05-12T09:51:42.810Z,1.88
2023-05-12T09:55:46.077Z,1.50
2023-05-12T09:59:49.635Z,1.00
2023-05-12T10:03:54.882Z,1.38
2023-05-12T10:08:00.061Z,1.48
2023-05-12T10:12:04.527Z,1.58
2023-05-12T10:16:07.899Z,1.40
2023-05-12T10:20:11.208Z,1.65
2023-05-12T10:24:19.321Z,1.90
2023-05-12T10:28:22.284Z,1.60
2023-05-12T10:32:24.287Z,1.30
2023-05-12T10:36:26.698Z,1.40
2023-05-12T10:40:28.859Z,1.42
2023-05-12T10:44:31.012Z,1.10
2023-05-12T10:48:33.107Z,2.13
2023-05-12T10:52:35.389Z,4.22
2023-05-12T10:56:37.635Z,3.65
2023-05-12T11:00:50.586Z,3.25
2023-05-12T11:04:53.710Z,3.67
2023-05-12T11:08:57.099Z,3.83
2023-05-12T11:12:59.480Z,4.70
2023-05-12T11:17:01.571Z,4.57
2023-05-12T11:21:11.290Z,3.92
2023-05-12T11:25:14.049Z,4.40
2023-05-12T11:29:16.768Z,2.72
2023-05-12T11:33:24.751Z,3.13
2023-05-12T11:37:26.730Z,3.97
2023-05-12T11:41:29.013Z,4.93
2023-05-12T11:45:31.575Z,5.00
2023-05-12T11:49:34.900Z,5.43
2023-05-12T11:53:40.565Z,6.57
2023-05-12T11:57:42.859Z,6.63
2023-05-12T12:01:48.877Z,6.30
2023-05-12T12:06:01.821Z,7.03
2023-05-12T12:10:31.080Z,6.65
2023-05-12T12:14:34.973Z,7.50
2023-05-12T12:18:36.817Z,7.82
2023-05-12T12:22:38.610Z,7.68
2023-05-12T12:26:40.619Z,8.38
2023-05-12T12:30:42.575Z,9.15
2023-05-12T12:34:46.338Z,9.02
2023-05-12T12:38:48.202Z,8.85
2023-05-12T12:42:50.237Z,8.82
2023-05-12T12:46:52.134Z,7.72
2023-05-12T12:50:55.584Z,7.78
2023-05-12T12:54:57.849Z,8.02
2023-05-12T12:58:59.725Z,7.70
2023-05-12T13:03:01.879Z,7.07
2023-05-12T13:07:03.984Z,6.75
2023-05-12T13:11:05.839Z,6.22
2023-05-12T13:15:08.386Z,6.50
2023-05-12T13:19:10.231Z,6.10
2023-05-12T13:23:12.337Z,7.28
2023-05-12T13:27:14.268Z,6.30
2023-05-12T13:31:16.291Z,6.32
2023-05-12T13:35:18.466Z,6.22
2023-05-12T13:39:20.390Z,7.03
2023-05-12T13:43:22.389Z,6.60
2023-05-12T13:47:24.352Z,6.45
2023-05-12T13:51:26.419Z,7.68
2023-05-12T13:55:28.417Z,7.50
2023-05-12T13:59:31.346Z,8.02
2023-05-12T14:03:33.258Z,7.80
2023-05-12T14:07:35.016Z,8.48
2023-05-12T14:11:36.939Z,7.72
2023-05-12T14:15:48.662Z,6.97
2023-05-12T14:19:52.092Z,7.07
2023-05-12T14:23:54.117Z,7.20
2023-05-12T14:27:56.829Z,6.75
2023-05-12T14:31:59.887Z,6.53
2023-05-12T14:36:07.335Z,6.80
2023-05-12T14:40:12.072Z,5.97
2023-05-12T14:44:13.920Z,5.72
2023-05-12T14:48:15.844Z,6.60
2023-05-12T14:52:17.994Z,5.47
2023-05-12T14:56:20.332Z,5.50
2023-05-12T15:00:22.603Z,5.10
2023-05-12T15:04:25.173Z,5.40
2023-05-12T15:08:27.176Z,4.65
2023-05-12T15:12:29.261Z,4.20
2023-05-12T15:16:31.725Z,5.10
2023-05-12T15:20:34.264Z,4.78
2023-05-12T15:24:36.487Z,4.97
2023-05-12T15:28:38.401Z,5.15
2023-05-12T15:32:41.112Z,5.05
2023-05-12T15:36:45.557Z,4.68
2023-05-12T15:40:47.569Z,5.65
2023-05-12T15:44:49.561Z,4.60
2023-05-12T15:48:51.707Z,5.40
2023-05-12T15:52:53.635Z,5.38
2023-05-12T15:56:55.549Z,4.90
2023-05-12T16:00:57.656Z,4.88
2023-05-12T16:04:59.491Z,4.68
2023-05-12T16:09:01.572Z,4.65
2023-05-12T16:13:03.503Z,4.82
2023-05-12T16:17:05.463Z,5.32
2023-05-12T16:21:08.247Z,4.60
2023-05-12T16:25:10.264Z,4.05
2023-05-12T16:29:12.155Z,4.10
2023-05-12T16:33:14.262Z,4.60
2023-05-12T16:37:16.260Z,4.45
2023-05-12T16:41:18.787Z,4.80
2023-05-12T16:45:22.498Z,4.32
2023-05-12T16:49:24.771Z,4.40
2023-05-12T16:53:28.863Z,4.20
2023-05-12T16:57:31.883Z,4.07
2023-05-12T17:01:35.937Z,3.85
2023-05-12T17:05:38.233Z,3.50
2023-05-12T17:09:40.308Z,2.80
2023-05-12T17:13:42.211Z,3.28
2023-05-12T17:17:44.146Z,3.00
2023-05-12T17:21:46.360Z,2.80
2023-05-12T17:25:48.204Z,2.80
2023-05-12T17:29:50.200Z,2.57
2023-05-12T17:33:52.376Z,2.95
2023-05-12T17:37:55.588Z,2.22
2023-05-12T17:41:59.087Z,2.65
2023-05-12T17:46:01.053Z,2.33
2023-05-12T17:50:03.036Z,2.30
2023-05-12T17:54:04.982Z,2.40
2023-05-12T17:58:06.929Z,2.20
2023-05-12T18:02:08.990Z,2.47
2023-05-12T18:06:12.797Z,2.42
2023-05-12T18:10:15.034Z,2.17
2023-05-12T18:14:17.311Z,2.25
2023-05-12T18:18:19.585Z,2.00
2023-05-12T18:22:21.636Z,2.10
2023-05-12T18:26:23.547Z,2.00
2023-05-12T18:30:25.543Z,2.03
2023-05-12T18:34:27.596Z,2.10
2023-05-12T18:38:29.978Z,2.05
2023-05-12T18:42:32.019Z,2.10
2023-05-12T18:46:34.183Z,2.00
2023-05-12T18:50:36.132Z,2.00
2023-05-12T18:54:39.803Z,2.00
2023-05-12T18:58:41.833Z,2.05
2023-05-12T19:02:45.747Z,1.83
2023-05-12T19:06:48.416Z,2.30
2023-05-12T19:10:50.260Z,2.08
2023-05-12T19:14:52.143Z,2.20
2023-05-12T19:22:56.445Z,2.05
2023-05-12T19:26:58.497Z,2.63
2023-05-12T19:31:00.570Z,2.13
2023-05-12T19:35:05.709Z,1.88
2023-05-12T19:39:07.782Z,2.10
2023-05-12T19:43:10.649Z,1.88
2023-05-12T19:47:12.736Z,2.28
2023-05-12T19:51:14.735Z,2.70
2023-05-12T19:55:16.860Z,1.93
2023-05-12T19:59:18.850Z,2.00
2023-05-12T20:03:21.104Z,2.13
2023-05-12T20:07:23.067Z,2.97
2023-05-12T20:11:25.078Z,5.03
2023-05-12T20:15:26.977Z,2.53
2023-05-12T20:19:28.830Z,1.77
2023-05-12T20:23:30.961Z,2.00
2023-05-12T20:27:33.322Z,1.77
2023-05-12T20:31:35.410Z,3.07
2023-05-12T20:35:37.419Z,1.97
2023-05-12T20:39:39.409Z,1.60
2023-05-12T20:43:41.436Z,1.90
2023-05-12T20:47:43.450Z,1.90
2023-05-12T20:51:45.516Z,1.83
2023-05-12T20:55:47.476Z,2.20
2023-05-12T20:59:52.459Z,1.83
2023-05-12T21:03:54.212Z,2.42
2023-05-12T21:07:56.192Z,3.33
2023-05-12T21:11:59.006Z,2.83
2023-05-12T21:16:01.024Z,2.53
2023-05-12T21:20:03.324Z,2.90
2023-05-12T21:24:05.423Z,2.93
2023-05-12T21:28:07.648Z,3.10
2023-05-12T21:32:09.766Z,2.72
2023-05-12T21:36:11.620Z,3.13
2023-05-12T21:40:13.858Z,2.78
2023-05-12T21:44:16.268Z,2.88
2023-05-12T21:48:18.554Z,3.03
2023-05-12T21:52:20.703Z,2.90
2023-05-12T21:56:23.063Z,2.87
2023-05-12T22:00:26.260Z,2.60
2023-05-12T22:04:28.340Z,3.00
2023-05-12T22:08:30.370Z,2.70
2023-05-12T22:12:32.515Z,2.57
2023-05-12T22:16:41.363Z,2.97
2023-05-12T22:20:44.746Z,2.63
2023-05-12T22:24:46.551Z,3.10
2023-05-12T22:28:48.446Z,3.10
2023-05-12T22:32:51.277Z,2.93
2023-05-12T22:36:53.193Z,3.33
2023-05-12T22:40:55.218Z,2.88
2023-05-12T22:44:58.297Z,3.23
2023-05-12T22:49:00.327Z,3.10
2023-05-12T22:53:02.318Z,3.07
2023-05-12T22:57:04.377Z,2.80
2023-05-12T23:01:06.553Z,2.30
2023-05-12T23:05:09.056Z,2.30
2023-05-12T23:09:11.094Z,2.60
2023-05-12T23:13:13.057Z,2.50
2023-05-12T23:17:15.057Z,2.28
2023-05-12T23:21:17.029Z,2.27
2023-05-12T23:25:19.455Z,2.17
2023-05-12T23:29:21.328Z,2.30
2023-05-12T23:33:23.281Z,2.10
2023-05-12T23:37:25.421Z,2.30
2023-05-12T23:41:31.459Z,2.40
2023-05-12T23:45:34.245Z,2.37
2023-05-12T23:49:36.237Z,2.60
2023-05-12T23:53:38.301Z,2.42
2023-05-12T23:57:40.552Z,3.00
